Terminal Aerodrome Forecast
Issued by NWS Cleveland, OH

Home | Current Version | Previous Version | Text Only | Print | Product List | Glossary Off
Versions: 1 2 3 4 5 6 7 8 9 10 11 12 13 14 15 16 17 18 19 20 21 22 23 24

000
FTUS41 KCLE 221100
TAFMFD
TAF
KMFD 221130Z 2212/2312 11006KT 6SM BR BKN250
     FM221400 15006KT P6SM SCT045 BKN120
      TEMPO 2214/2218 BKN045
     FM221800 16008KT P6SM BKN045
     FM222200 16008KT P6SM OVC025
     FM230200 14008KT 5SM BR VCSH OVC015
     FM230600 13012KT 4SM -RA BR OVC015
     FM230900 15015G25KT 4SM -RA BR OVC007=

USA.gov is the U.S. government's official web portal to all federal, state and local government web resources and services.